createdAt,value
2023-02-21T00:00:27.067Z,309.37
2023-02-21T00:05:27.019Z,309.08
2023-02-21T00:10:26.912Z,311.40
2023-02-21T00:15:26.842Z,311.99
2023-02-21T00:20:26.746Z,310.82
2023-02-21T00:25:26.702Z,314.06
2023-02-21T00:30:26.707Z,313.76
2023-02-21T00:35:26.560Z,315.55
2023-02-21T00:40:26.515Z,317.97
2023-02-21T00:45:26.435Z,316.76
2023-02-21T00:50:26.373Z,317.97
2023-02-21T00:55:26.271Z,319.50
2023-02-21T01:00:26.255Z,320.12
2023-02-21T01:05:44.096Z,321.05
2023-02-21T01:10:36.509Z,321.98
2023-02-21T01:15:36.474Z,321.98
2023-02-21T01:20:36.369Z,320.74
2023-02-21T01:25:36.334Z,319.50
2023-02-21T01:30:36.283Z,318.27
2023-02-21T01:35:36.211Z,319.50
2023-02-21T01:40:36.086Z,316.76
2023-02-21T01:45:36.052Z,316.45
2023-02-21T01:50:35.976Z,316.76
2023-02-21T01:55:35.942Z,315.25
2023-02-21T02:00:35.909Z,314.36
2023-02-21T02:05:35.796Z,313.76
2023-02-21T02:10:35.689Z,313.46
2023-02-21T02:15:35.758Z,312.28
2023-02-21T02:20:35.600Z,309.95
2023-02-21T02:25:35.546Z,309.37
2023-02-21T02:30:35.559Z,308.80
2023-02-21T02:35:35.412Z,308.80
2023-02-21T02:40:35.311Z,307.37
2023-02-21T02:45:35.273Z,308.80
2023-02-21T02:50:35.188Z,305.95
2023-02-21T02:55:35.137Z,307.08
2023-02-21T03:00:35.063Z,305.39
2023-02-21T03:05:34.986Z,304.55
2023-02-21T03:10:34.936Z,303.99
2023-02-21T03:15:34.858Z,305.11
2023-02-21T03:20:34.805Z,305.11
2023-02-21T03:25:34.745Z,304.55
2023-02-21T03:30:34.674Z,306.23
2023-02-21T03:35:34.622Z,306.51
2023-02-21T03:40:34.533Z,308.22
2023-02-21T03:45:34.483Z,305.39
2023-02-21T03:50:34.420Z,306.51
2023-02-21T03:55:34.332Z,305.67
2023-02-21T04:00:34.257Z,307.37
2023-02-21T04:05:34.240Z,307.65
2023-02-21T04:10:40.604Z,307.37
2023-02-21T04:15:35.106Z,308.22
2023-02-21T04:20:34.031Z,309.66
2023-02-21T04:25:34.292Z,311.70
2023-02-21T04:30:33.903Z,313.17
2023-02-21T04:35:33.822Z,314.95
2023-02-21T04:40:33.732Z,314.36
2023-02-21T04:45:33.704Z,311.40
2023-02-21T04:50:33.619Z,310.82
2023-02-21T04:55:33.573Z,312.58
2023-02-21T05:00:33.476Z,310.24
2023-02-21T05:05:33.432Z,312.28
2023-02-21T05:10:44.969Z,309.37
2023-02-21T05:15:47.787Z,309.95
2023-02-21T05:20:40.190Z,311.40
2023-02-21T05:25:40.113Z,311.40
2023-02-21T05:30:40.145Z,311.99
2023-02-21T05:35:39.992Z,312.87
2023-02-21T05:40:39.953Z,313.46
2023-02-21T05:45:39.872Z,314.06
2023-02-21T05:50:39.843Z,314.06
2023-02-21T05:55:39.688Z,316.76
2023-02-21T06:00:40.333Z,317.67
2023-02-21T06:05:39.594Z,319.50
2023-02-21T06:10:39.551Z,318.27
2023-02-21T06:15:40.232Z,320.12
2023-02-21T06:20:39.399Z,323.24
2023-02-21T06:25:39.367Z,324.82
2023-02-21T06:30:39.379Z,324.82
2023-02-21T06:35:39.195Z,324.50
2023-02-21T06:40:39.157Z,326.74
2023-02-21T06:45:39.058Z,325.46
2023-02-21T06:50:39.049Z,326.74
2023-02-21T06:55:38.950Z,329.33
2023-02-21T07:00:38.901Z,328.68
2023-02-21T07:05:38.837Z,328.68
2023-02-21T07:10:38.760Z,331.30
2023-02-21T07:15:38.752Z,329.99
2023-02-21T07:20:43.867Z,329.99
2023-02-21T07:25:38.549Z,329.66
2023-02-21T07:30:38.574Z,329.01
2023-02-21T07:35:38.426Z,329.01
2023-02-21T07:40:38.312Z,328.68
2023-02-21T07:45:38.291Z,325.46
2023-02-21T07:50:38.210Z,322.92
2023-02-21T07:55:38.139Z,318.27
2023-02-21T08:00:40.279Z,310.24
2023-02-21T08:05:38.312Z,304.27
2023-02-21T08:10:37.920Z,299.33
2023-02-21T08:15:37.899Z,289.15
2023-02-21T08:20:37.818Z,279.88
2023-02-21T08:25:37.720Z,270.09
2023-02-21T08:30:37.799Z,261.78
2023-02-21T08:35:37.648Z,253.19
2023-02-21T08:40:37.570Z,243.88
2023-02-21T08:45:37.514Z,237.43
2023-02-21T08:50:37.399Z,229.54
2023-02-21T08:55:37.357Z,225.18
2023-02-21T09:00:37.286Z,219.23
2023-02-21T09:05:37.197Z,215.25
2023-02-21T09:10:37.188Z,211.00
2023-02-21T09:15:37.132Z,208.88
2023-02-21T09:20:37.038Z,202.50
2023-02-21T09:25:36.968Z,197.79
2023-02-21T09:30:37.005Z,191.07
2023-02-21T09:35:36.859Z,184.22
2023-02-21T09:40:36.742Z,178.19
2023-02-21T09:45:36.701Z,172.37
2023-02-21T09:50:36.634Z,165.93
2023-02-21T09:55:36.575Z,161.17
2023-02-21T10:00:36.473Z,156.25
2023-02-21T10:05:36.444Z,151.62
2023-02-21T10:10:36.346Z,147.38
2023-02-21T10:15:36.284Z,143.25
2023-02-21T10:20:36.553Z,137.87
2023-02-21T10:25:36.261Z,134.57
2023-02-21T10:30:36.168Z,131.84
2023-02-21T10:35:36.077Z,130.11
2023-02-21T10:40:35.965Z,128.03
2023-02-21T10:45:35.902Z,126.59
2023-02-21T10:50:35.837Z,123.63
2023-02-21T10:55:35.749Z,121.32
2023-02-21T11:00:35.680Z,120.71
2023-02-21T11:05:35.641Z,118.67
2023-02-21T11:10:35.586Z,116.06
2023-02-21T11:15:35.537Z,114.41
2023-02-21T11:20:35.426Z,115.42
2023-02-21T11:25:35.371Z,114.87
2023-02-21T11:30:35.330Z,114.33
2023-02-21T11:35:35.256Z,114.56
2023-02-21T11:40:35.143Z,114.72
2023-02-21T11:45:36.070Z,115.98
2023-02-21T11:50:35.033Z,118.25
2023-02-21T11:55:35.007Z,120.54
2023-02-21T12:00:34.894Z,122.19
2023-02-21T12:05:34.867Z,123.44
2023-02-21T12:10:34.759Z,123.99
2023-02-21T12:15:34.741Z,124.91
2023-02-21T12:20:34.594Z,125.00
2023-02-21T12:25:34.601Z,123.99
2023-02-21T12:30:34.529Z,125.28
2023-02-21T12:35:34.462Z,126.03
2023-02-21T12:40:34.781Z,127.74
2023-02-21T12:45:34.323Z,129.21
2023-02-21T12:50:34.236Z,130.41
2023-02-21T12:55:34.202Z,131.63
2023-02-21T13:00:34.114Z,132.77
2023-02-21T13:05:34.059Z,135.65
2023-02-21T13:10:33.970Z,139.58
2023-02-21T13:15:33.906Z,143.86
2023-02-21T13:20:33.838Z,146.61
2023-02-21T13:25:33.788Z,150.54
2023-02-21T13:30:33.757Z,155.10
2023-02-21T13:35:33.651Z,160.10
2023-02-21T13:40:33.574Z,164.63
2023-02-21T13:45:33.633Z,166.42
2023-02-21T13:50:33.476Z,167.91
2023-02-21T13:55:33.398Z,168.75
2023-02-21T14:00:33.344Z,168.24
2023-02-21T14:05:33.273Z,168.24
2023-02-21T14:10:33.172Z,167.08
2023-02-21T14:15:33.120Z,165.44
2023-02-21T14:20:33.023Z,166.75
2023-02-21T14:25:32.993Z,166.58
2023-02-21T14:30:32.936Z,169.60
2023-02-21T14:35:32.860Z,171.84
2023-02-21T14:40:32.779Z,174.33
2023-02-21T14:45:32.732Z,177.26
2023-02-21T14:50:32.647Z,179.71
2023-02-21T14:55:33.325Z,181.45
2023-02-21T15:00:32.540Z,182.83
2023-02-21T15:05:32.464Z,185.64
2023-02-21T15:10:32.387Z,187.19
2023-02-21T15:15:32.316Z,189.44
2023-02-21T15:20:32.259Z,193.41
2023-02-21T15:25:32.881Z,196.39
2023-02-21T15:30:32.181Z,199.46
2023-02-21T15:35:32.055Z,200.18
2023-02-21T15:40:31.992Z,202.38
2023-02-21T15:45:32.002Z,203.87
2023-02-21T15:50:31.861Z,204.12
2023-02-21T15:55:31.831Z,205.13
2023-02-21T16:00:31.783Z,207.05
2023-02-21T16:05:31.641Z,208.88
2023-02-21T16:10:31.607Z,208.62
2023-02-21T16:15:31.575Z,212.49
2023-02-21T16:20:31.445Z,211.14
2023-02-21T16:25:31.372Z,212.49
2023-02-21T16:30:31.363Z,214.55
2023-02-21T16:35:31.414Z,218.07
2023-02-21T16:40:31.215Z,219.08
2023-02-21T16:45:31.132Z,221.72
2023-02-21T16:50:31.099Z,224.42
2023-02-21T16:55:30.994Z,226.10
2023-02-21T17:00:30.927Z,228.75
2023-02-21T17:05:30.851Z,230.82
2023-02-21T17:10:30.814Z,233.42
2023-02-21T17:15:30.712Z,234.74
2023-02-21T17:20:30.669Z,237.76
2023-02-21T17:25:30.574Z,240.87
2023-02-21T17:30:30.548Z,244.24
2023-02-21T17:35:30.457Z,247.15
2023-02-21T17:40:30.368Z,247.34
2023-02-21T17:45:30.314Z,252.23
2023-02-21T17:50:30.245Z,253.96
2023-02-21T17:55:30.206Z,256.52
2023-02-21T18:00:30.144Z,257.31
2023-02-21T18:05:30.073Z,260.54
2023-02-21T18:10:29.998Z,263.02
2023-02-21T18:15:29.928Z,263.86
2023-02-21T18:20:29.890Z,264.91
2023-02-21T18:25:29.816Z,266.40
2023-02-21T18:30:29.835Z,268.99
2023-02-21T18:35:29.714Z,269.65
2023-02-21T18:40:29.607Z,272.53
2023-02-21T18:45:29.509Z,274.10
2023-02-21T18:50:29.490Z,274.78
2023-02-21T18:55:29.410Z,276.39
2023-02-21T19:00:29.328Z,274.78
2023-02-21T19:05:29.272Z,276.62
2023-02-21T19:10:29.246Z,276.62
2023-02-21T19:15:29.114Z,277.77
2023-02-21T19:20:29.113Z,279.41
2023-02-21T19:25:29.064Z,279.18
2023-02-21T19:30:29.033Z,282.26
2023-02-21T19:35:28.918Z,283.23
2023-02-21T19:40:28.829Z,286.16
2023-02-21T19:45:28.802Z,287.65
2023-02-21T19:50:28.675Z,289.66
2023-02-21T19:55:28.724Z,289.66
2023-02-21T20:00:28.564Z,290.93
2023-02-21T20:05:28.472Z,292.21
2023-02-21T20:10:28.437Z,294.80
2023-02-21T20:15:28.354Z,296.91
2023-02-21T20:20:28.286Z,298.25
2023-02-21T20:25:28.216Z,300.14
2023-02-21T20:30:28.351Z,301.23
2023-02-21T20:35:28.097Z,303.15
2023-02-21T20:40:28.022Z,303.43
2023-02-21T20:45:27.997Z,303.99
2023-02-21T20:50:27.904Z,305.39
2023-02-21T20:55:27.833Z,308.80
2023-02-21T21:00:27.772Z,307.65
2023-02-21T21:05:27.693Z,311.40
2023-02-21T21:10:27.642Z,309.95
2023-02-21T21:15:27.553Z,311.11
2023-02-21T21:20:27.500Z,311.70
2023-02-21T21:25:27.433Z,313.46
2023-02-21T21:30:27.461Z,314.36
2023-02-21T21:35:27.293Z,316.15
2023-02-21T21:40:27.267Z,314.95
2023-02-21T21:45:27.146Z,315.85
2023-02-21T21:50:27.099Z,315.25
2023-02-21T21:55:27.047Z,316.15
2023-02-21T22:00:26.966Z,317.97
2023-02-21T22:05:26.918Z,319.81
2023-02-21T22:10:26.855Z,321.05
2023-02-21T22:15:26.780Z,322.92
2023-02-21T22:20:26.720Z,323.55
2023-02-21T22:25:26.629Z,323.87
2023-02-21T22:30:26.668Z,322.61
2023-02-21T22:35:26.484Z,323.87
2023-02-21T22:40:26.436Z,326.42
2023-02-21T22:45:26.371Z,326.42
2023-02-21T22:50:26.314Z,327.38
2023-02-21T22:55:26.221Z,329.66
2023-02-21T23:00:26.151Z,329.01
2023-02-21T23:05:26.084Z,327.71
2023-02-21T23:10:26.045Z,330.64
2023-02-21T23:15:26.003Z,330.32
2023-02-21T23:20:25.906Z,329.66
2023-02-21T23:25:25.840Z,329.66
2023-02-21T23:30:25.804Z,328.03
2023-02-21T23:35:25.709Z,331.64
2023-02-21T23:40:25.659Z,333.97
2023-02-21T23:45:25.567Z,332.63
2023-02-21T23:50:25.523Z,334.31
2023-02-21T23:55:25.442Z,335.66
